createdAt,value
2018-11-04T00:01:05.420Z,102922.09
2018-11-04T00:03:33.775Z,102925.09
2018-11-04T00:06:01.523Z,102922.09
2018-11-04T00:08:29.846Z,102923.75
2018-11-04T00:10:58.751Z,102921.34
2018-11-04T00:13:27.078Z,102919.68
2018-11-04T00:15:55.405Z,102914.33
2018-11-04T00:18:23.742Z,102917.73
2018-11-04T00:20:52.069Z,102923.32
2018-11-04T00:23:19.800Z,102915.26
2018-11-04T00:25:48.163Z,102912.55
2018-11-04T00:28:17.075Z,102910.84
2018-11-04T00:30:45.407Z,102912.16
2018-11-04T00:33:14.096Z,102910.67
2018-11-04T00:35:42.415Z,102913.47
2018-11-04T00:38:10.757Z,102911.92
2018-11-04T00:40:39.063Z,102911.58
2018-11-04T00:43:07.388Z,102908.05
2018-11-04T00:45:35.735Z,102904.98
2018-11-04T00:48:04.033Z,102905.22
2018-11-04T00:50:31.785Z,102905.62
2018-11-04T00:53:00.682Z,102904.52
2018-11-04T00:55:28.441Z,102902.25
2018-11-04T00:57:57.180Z,102902.92
2018-11-04T01:00:25.099Z,102893.45
2018-11-04T01:02:53.999Z,102893.16
2018-11-04T01:05:22.329Z,102894.85
2018-11-04T01:07:50.073Z,102896.04
2018-11-04T01:10:18.992Z,102888.65
2018-11-04T01:12:47.301Z,102887.92
2018-11-04T01:15:15.619Z,102887.29
2018-11-04T01:17:43.937Z,102887.14
2018-11-04T01:20:12.271Z,102878.31
2018-11-04T01:22:40.010Z,102870.13
2018-11-04T01:25:08.347Z,102871.78
2018-11-04T01:27:37.268Z,102878.02
2018-11-04T01:30:05.036Z,102873.81
2018-11-04T01:32:33.916Z,102876.45
2018-11-04T01:35:01.668Z,102875.95
2018-11-04T01:37:30.042Z,102877.31
2018-11-04T01:39:58.319Z,102878.38
2018-11-04T01:42:27.227Z,102872.30
2018-11-04T01:44:54.983Z,102874.71
2018-11-04T01:47:23.312Z,102868.92
2018-11-04T01:49:52.212Z,102865.08
2018-11-04T01:52:20.542Z,102863.81
2018-11-04T01:54:48.868Z,102859.61
2018-11-04T01:57:17.197Z,102860.75
2018-11-04T01:59:45.542Z,102859.11
2018-11-04T02:02:13.862Z,102859.10
2018-11-04T02:04:41.635Z,102860.08
2018-11-04T02:07:10.502Z,102861.23
2018-11-04T02:09:38.253Z,102853.86
2018-11-04T02:12:06.658Z,102860.37
2018-11-04T02:14:35.489Z,102859.05
2018-11-04T02:17:03.813Z,102856.02
2018-11-04T02:19:31.556Z,102851.50
2018-11-04T02:22:00.458Z,102850.45
2018-11-04T02:24:28.204Z,102848.26
2018-11-04T02:26:57.122Z,102847.92
2018-11-04T02:29:25.466Z,102841.35
2018-11-04T02:31:53.208Z,102845.62
2018-11-04T02:34:22.124Z,102849.06
2018-11-04T02:36:49.858Z,102839.44
2018-11-04T02:39:18.760Z,102839.66
2018-11-04T02:41:47.088Z,102839.57
2018-11-04T02:44:14.829Z,102838.22
2018-11-04T02:46:43.219Z,102837.05
2018-11-04T02:49:11.477Z,102840.35
2018-11-04T02:51:39.794Z,102838.09
2018-11-04T02:54:08.696Z,102841.11
2018-11-04T02:56:36.432Z,102839.42
2018-11-04T02:59:04.750Z,102840.48
2018-11-04T03:01:33.658Z,102841.27
2018-11-04T03:04:01.975Z,102843.10
2018-11-04T03:06:29.718Z,102837.59
2018-11-04T03:08:58.040Z,102840.61
2018-11-04T03:11:26.370Z,102837.22
2018-11-04T03:13:54.687Z,102832.80
2018-11-04T03:16:23.034Z,102832.08
2018-11-04T03:18:51.358Z,102837.86
2018-11-04T03:21:19.685Z,102837.13
2018-11-04T03:23:48.583Z,102838.56
2018-11-04T03:26:16.390Z,102833.70
2018-11-04T03:28:45.271Z,102836.74
2018-11-04T03:31:13.619Z,102835.59
2018-11-04T03:33:41.354Z,102832.24
2018-11-04T03:36:10.272Z,102832.33
2018-11-04T03:38:38.609Z,102830.92
2018-11-04T03:41:06.918Z,102830.42
2018-11-04T03:43:34.664Z,102828.95
2018-11-04T03:46:03.322Z,102829.23
2018-11-04T03:48:32.218Z,102828.89
2018-11-04T03:51:00.533Z,102830.70
2018-11-04T03:53:28.276Z,102823.26
2018-11-04T03:55:57.174Z,102820.52
2018-11-04T03:58:25.503Z,102823.87
2018-11-04T04:00:53.822Z,102827.39
2018-11-04T04:03:22.155Z,102825.28
2018-11-04T04:05:49.893Z,102828.96
2018-11-04T04:08:18.231Z,102828.94
2018-11-04T04:10:46.548Z,102827.20
2018-11-04T04:13:14.867Z,102829.06
2018-11-04T04:15:43.181Z,102825.91
2018-11-04T04:18:12.078Z,102825.16
2018-11-04T04:20:39.816Z,102824.74
2018-11-04T04:23:08.133Z,102829.00
2018-11-04T04:25:37.028Z,102827.78
2018-11-04T04:28:04.785Z,102821.44
2018-11-04T04:30:33.691Z,102824.76
2018-11-04T04:33:02.036Z,102813.37
2018-11-04T04:35:30.350Z,102821.66
2018-11-04T04:37:58.675Z,102818.48
2018-11-04T04:40:26.422Z,102818.13
2018-11-04T04:42:55.322Z,102821.36
2018-11-04T04:45:23.060Z,102818.09
2018-11-04T04:47:51.981Z,102811.10
2018-11-04T04:50:20.291Z,102808.58
2018-11-04T04:52:48.608Z,102809.64
2018-11-04T04:55:16.342Z,102807.91
2018-11-04T04:57:45.246Z,102809.66
2018-11-04T05:00:13.576Z,102805.66
2018-11-04T05:02:41.901Z,102809.37
2018-11-04T05:05:10.218Z,102806.71
2018-11-04T05:07:37.966Z,102805.01
2018-11-04T05:10:06.289Z,102798.05
2018-11-04T05:12:35.196Z,102800.19
2018-11-04T05:15:03.526Z,102798.59
2018-11-04T05:17:31.851Z,102794.30
2018-11-04T05:20:00.167Z,102793.02
2018-11-04T05:22:27.914Z,102794.66
2018-11-04T05:24:56.819Z,102796.56
2018-11-04T05:27:25.055Z,102790.95
2018-11-04T05:29:53.474Z,102795.44
2018-11-04T05:32:21.807Z,102795.65
2018-11-04T05:34:50.157Z,102790.32
2018-11-04T05:37:17.908Z,102789.70
2018-11-04T05:39:46.257Z,102793.20
2018-11-04T05:42:14.583Z,102786.06
2018-11-04T05:44:43.491Z,102778.97
2018-11-04T05:47:11.806Z,102778.97
2018-11-04T05:49:40.135Z,102783.02
2018-11-04T05:52:08.454Z,102783.32
2018-11-04T05:54:36.771Z,102786.37
2018-11-04T05:57:05.108Z,102786.10
2018-11-04T05:59:32.849Z,102789.96
2018-11-04T06:02:01.167Z,102795.65
2018-11-04T06:04:29.499Z,102797.19
2018-11-04T06:06:58.394Z,102798.17
2018-11-04T06:09:26.138Z,102797.16
2018-11-04T06:11:54.465Z,102794.77
2018-11-04T06:14:23.374Z,102794.72
2018-11-04T06:16:51.121Z,102793.72
2018-11-04T06:19:19.441Z,102798.84
2018-11-04T06:21:47.755Z,102802.09
2018-11-04T06:24:16.655Z,102804.22
2018-11-04T06:26:44.394Z,102800.36
2018-11-04T06:29:13.294Z,102803.67
2018-11-04T06:31:41.048Z,102811.38
2018-11-04T06:34:09.372Z,102798.20
2018-11-04T06:36:37.732Z,102803.27
2018-11-04T06:39:06.637Z,102804.19
2018-11-04T06:41:34.998Z,102809.88
2018-11-04T06:44:02.745Z,102815.80
2018-11-04T06:46:31.073Z,102811.98
2018-11-04T06:48:59.983Z,102808.02
2018-11-04T06:51:28.310Z,102798.86
2018-11-04T06:53:56.048Z,102798.67
2018-11-04T06:56:24.384Z,102796.96
2018-11-04T06:58:53.310Z,102802.34
2018-11-04T07:01:21.060Z,102812.66
2018-11-04T07:03:49.390Z,102799.93
2018-11-04T07:06:18.294Z,102813.88
2018-11-04T07:08:46.620Z,102810.20
2018-11-04T07:11:14.376Z,102808.93
2018-11-04T07:13:42.712Z,102804.05
2018-11-04T07:16:11.615Z,102799.23
2018-11-04T07:18:39.943Z,102802.21
2018-11-04T07:21:08.266Z,102801.45
2018-11-04T07:23:36.603Z,102799.37
2018-11-04T07:26:04.931Z,102801.03
2018-11-04T07:28:32.741Z,102802.54
2018-11-04T07:31:01.029Z,102803.48
2018-11-04T07:33:29.348Z,102799.94
2018-11-04T07:35:58.255Z,102800.02
2018-11-04T07:38:28.407Z,102796.56
2018-11-04T07:40:54.736Z,102792.53
2018-11-04T07:43:23.514Z,102786.45
2018-11-04T07:45:51.970Z,102793.09
2018-11-04T07:48:20.296Z,102796.45
2018-11-04T07:50:48.656Z,102797.92
2018-11-04T07:53:16.675Z,102791.84
2018-11-04T07:55:45.574Z,102796.67
2018-11-04T07:58:13.320Z,102796.61
2018-11-04T08:00:42.528Z,102796.78
2018-11-04T08:03:10.816Z,102793.13
2018-11-04T08:05:38.582Z,102797.16
2018-11-04T08:08:07.809Z,102786.17
2018-11-04T08:10:36.126Z,102790.51
2018-11-04T08:13:03.870Z,102790.17
2018-11-04T08:15:32.201Z,102785.37
2018-11-04T08:18:01.124Z,102778.55
2018-11-04T08:20:29.451Z,102781.49
2018-11-04T08:22:57.185Z,102777.65
2018-11-04T08:25:26.088Z,102774.83
2018-11-04T08:27:54.566Z,102771.31
2018-11-04T08:30:22.596Z,102772.36
2018-11-04T08:32:51.415Z,102770.19
2018-11-04T08:35:21.295Z,102766.08
2018-11-04T08:37:48.981Z,102763.36
2018-11-04T08:40:17.641Z,102756.63
2018-11-04T08:42:45.961Z,102755.31
2018-11-04T08:45:13.710Z,102751.83
2018-11-04T08:47:48.841Z,102745.89
2018-11-04T08:50:17.179Z,102746.34
2018-11-04T08:52:44.921Z,102746.13
2018-11-04T08:55:13.381Z,102750.44
2018-11-04T08:57:42.168Z,102751.93
2018-11-04T09:00:09.991Z,102750.61
2018-11-04T09:02:38.261Z,102741.92
2018-11-04T09:05:07.177Z,102743.22
2018-11-04T09:07:35.545Z,102736.64
2018-11-04T09:10:03.879Z,102736.13
2018-11-04T09:12:32.224Z,102737.39
2018-11-04T09:15:00.546Z,102736.55
2018-11-04T09:17:28.296Z,102735.44
2018-11-04T09:19:57.535Z,102736.91
2018-11-04T09:22:25.352Z,102732.73
2018-11-04T09:24:54.184Z,102730.45
2018-11-04T09:27:22.808Z,102725.66
2018-11-04T09:29:51.150Z,102725.31
2018-11-04T09:32:18.901Z,102725.20
2018-11-04T09:34:47.835Z,102723.82
2018-11-04T09:37:15.570Z,102716.30
2018-11-04T09:39:43.914Z,102715.23
2018-11-04T09:42:12.885Z,102716.82
2018-11-04T09:44:40.665Z,102713.02
2018-11-04T09:47:09.563Z,102712.64
2018-11-04T09:49:38.893Z,102713.73
2018-11-04T09:52:05.952Z,102711.23
2018-11-04T09:54:34.858Z,102711.55
2018-11-04T09:57:03.193Z,102710.33
2018-11-04T09:59:31.519Z,102704.87
2018-11-04T10:01:59.844Z,102699.99
2018-11-04T10:04:28.214Z,102699.56
2018-11-04T10:06:56.588Z,102695.30
2018-11-04T10:09:24.318Z,102695.85
2018-11-04T10:11:53.223Z,102691.17
2018-11-04T10:14:21.550Z,102689.17
2018-11-04T10:16:49.883Z,102684.02
2018-11-04T10:19:17.843Z,102680.12
2018-11-04T10:21:45.971Z,102675.97
2018-11-04T10:24:14.289Z,102670.26
2018-11-04T10:26:43.222Z,102665.36
2018-11-04T10:29:11.544Z,102658.41
2018-11-04T10:31:39.856Z,102661.44
2018-11-04T10:34:07.594Z,102660.36
2018-11-04T10:36:35.926Z,102663.99
2018-11-04T10:39:04.254Z,102665.36
2018-11-04T10:41:33.167Z,102660.63
2018-11-04T10:44:01.529Z,102653.02
2018-11-04T10:46:30.148Z,102651.29
2018-11-04T10:48:58.484Z,102648.83
2018-11-04T10:51:26.820Z,102637.05
2018-11-04T10:53:55.144Z,102631.42
2018-11-04T10:56:23.478Z,102630.00
2018-11-04T10:58:52.239Z,102627.97
2018-11-04T11:01:21.081Z,102625.80
2018-11-04T11:03:48.813Z,102623.10
2018-11-04T11:06:18.314Z,102624.30
2018-11-04T11:08:47.228Z,102617.42
2018-11-04T11:11:15.600Z,102610.01
2018-11-04T11:13:44.039Z,102601.70
2018-11-04T11:16:12.285Z,102593.52
2018-11-04T11:18:40.803Z,102596.15
2018-11-04T11:21:09.883Z,102590.88
2018-11-04T11:23:38.195Z,102583.80
2018-11-04T11:26:06.039Z,102585.66
2018-11-04T11:28:35.217Z,102582.73
2018-11-04T11:31:03.752Z,102577.97
2018-11-04T11:33:32.238Z,102579.61
2018-11-04T11:36:00.733Z,102582.13
2018-11-04T11:38:28.624Z,102577.41
2018-11-04T11:41:03.668Z,102577.97
2018-11-04T11:43:32.137Z,102571.59
2018-11-04T11:46:00.441Z,102563.09
2018-11-04T11:48:28.764Z,102563.64
2018-11-04T11:50:58.255Z,102555.25
2018-11-04T11:53:26.572Z,102552.23
2018-11-04T11:55:55.024Z,102548.55
2018-11-04T11:58:23.453Z,102552.78
2018-11-04T12:00:53.992Z,102547.97
2018-11-04T12:03:22.467Z,102544.64
2018-11-04T12:08:25.804Z,102536.16
2018-11-04T12:10:54.143Z,102535.05
2018-11-04T12:13:22.458Z,102523.33
2018-11-04T12:15:51.320Z,102517.34
2018-11-04T12:18:19.641Z,102514.56
2018-11-04T12:20:48.536Z,102507.09
2018-11-04T12:23:17.046Z,102508.92
2018-11-04T12:25:46.284Z,102504.20
2018-11-04T12:28:15.182Z,102497.56
2018-11-04T12:30:43.504Z,102501.20
2018-11-04T12:33:11.952Z,102495.84
2018-11-04T12:35:43.443Z,102492.80
2018-11-04T12:38:11.167Z,102487.98
2018-11-04T12:40:39.997Z,102485.95
2018-11-04T12:43:09.701Z,102483.49
2018-11-04T12:45:38.098Z,102479.15
2018-11-04T12:48:07.292Z,102478.53
2018-11-04T12:50:36.708Z,102473.01
2018-11-04T12:53:04.244Z,102471.03
2018-11-04T12:55:33.700Z,102466.32
2018-11-04T12:58:02.285Z,102463.10
2018-11-04T13:00:31.582Z,102465.69
2018-11-04T13:03:01.380Z,102461.08
2018-11-04T13:05:29.887Z,102454.45
2018-11-04T13:08:00.513Z,102459.41
2018-11-04T13:10:30.095Z,102450.96
2018-11-04T13:12:58.418Z,102448.42
2018-11-04T13:15:26.985Z,102448.14
2018-11-04T13:17:54.909Z,102436.36
2018-11-04T13:20:23.892Z,102435.25
2018-11-04T13:22:53.453Z,102424.29
2018-11-04T13:25:21.206Z,102419.87
2018-11-04T13:27:49.571Z,102420.59
2018-11-04T13:30:19.012Z,102424.16
2018-11-04T13:32:47.344Z,102420.70
2018-11-04T13:35:15.675Z,102417.69
2018-11-04T13:37:44.684Z,102414.48
2018-11-04T13:40:12.540Z,102410.98
2018-11-04T13:42:41.472Z,102410.83
2018-11-04T13:45:09.908Z,102406.97
2018-11-04T13:47:37.574Z,102402.82
2018-11-04T13:50:06.670Z,102400.16
2018-11-04T13:52:34.988Z,102398.73
2018-11-04T13:55:03.448Z,102394.21
2018-11-04T13:57:32.869Z,102388.57
2018-11-04T14:00:01.456Z,102389.64
2018-11-04T14:02:30.657Z,102391.55
2018-11-04T14:04:59.737Z,102390.75
2018-11-04T14:07:27.479Z,102388.20
2018-11-04T14:09:55.839Z,102388.39
2018-11-04T14:12:24.844Z,102393.39
2018-11-04T14:14:53.164Z,102385.17
2018-11-04T14:17:21.481Z,102388.70
2018-11-04T14:19:49.983Z,102379.69
2018-11-04T14:22:17.734Z,102375.84
2018-11-04T14:24:47.231Z,102373.20
2018-11-04T14:27:15.897Z,102371.20
2018-11-04T14:29:44.390Z,102362.51
2018-11-04T14:32:13.291Z,102362.03
2018-11-04T14:34:42.641Z,102357.69
2018-11-04T14:37:11.514Z,102350.15
2018-11-04T14:39:43.432Z,102345.69
2018-11-04T14:42:12.426Z,102343.64
2018-11-04T14:44:41.927Z,102340.17
2018-11-04T14:47:09.761Z,102338.37
2018-11-04T14:58:37.016Z,102335.79
2018-11-04T15:01:05.023Z,102341.28
2018-11-04T15:03:33.189Z,102336.86
2018-11-04T15:06:02.142Z,102337.11
2018-11-04T15:08:29.880Z,102339.16
2018-11-04T15:10:58.326Z,102334.07
2018-11-04T15:13:27.854Z,102334.91
2018-11-04T15:15:56.583Z,102336.23
2018-11-04T15:18:24.903Z,102337.66
2018-11-04T15:20:53.231Z,102338.30
2018-11-04T15:23:21.559Z,102336.81
2018-11-04T15:25:49.890Z,102338.78
2018-11-04T15:28:18.230Z,102337.73
2018-11-04T15:30:46.290Z,102336.30
2018-11-04T15:33:14.329Z,102330.55
2018-11-04T15:35:43.248Z,102327.98
2018-11-04T15:38:11.645Z,102323.89
2018-11-04T15:40:40.010Z,102319.19
2018-11-04T15:43:08.287Z,102319.42
2018-11-04T15:45:36.614Z,102312.56
2018-11-04T15:48:04.937Z,102307.83
2018-11-04T15:50:33.280Z,102312.26
2018-11-04T15:53:01.315Z,102307.81
2018-11-04T15:55:29.628Z,102304.12
2018-11-04T15:57:58.602Z,102306.66
2018-11-04T16:00:26.940Z,102306.45
2018-11-04T16:02:55.324Z,102303.71
2018-11-04T16:05:24.045Z,102302.70
2018-11-04T16:07:52.304Z,102296.45
2018-11-04T16:10:20.097Z,102299.67
2018-11-04T16:12:49.007Z,102294.55
2018-11-04T16:15:17.392Z,102294.45
2018-11-04T16:17:45.823Z,102295.10
2018-11-04T16:20:14.155Z,102296.70
2018-11-04T16:22:42.626Z,102297.19
2018-11-04T16:25:11.185Z,102296.70
2018-11-04T16:27:39.522Z,102291.85
2018-11-04T16:30:07.298Z,102289.98
2018-11-04T16:32:36.229Z,102286.58
2018-11-04T16:35:04.554Z,102285.78
2018-11-04T16:37:32.546Z,102285.03
2018-11-04T16:40:01.639Z,102284.36
2018-11-04T16:42:29.804Z,102280.94
2018-11-04T16:44:58.112Z,102286.44
2018-11-04T16:47:26.449Z,102284.41
2018-11-04T16:49:54.267Z,102281.72
2018-11-04T16:52:23.161Z,102282.59
2018-11-04T16:54:51.520Z,102289.20
2018-11-04T16:57:19.965Z,102294.02
2018-11-04T16:59:48.296Z,102293.30
2018-11-04T17:02:16.661Z,102285.22
2018-11-04T17:04:45.180Z,102278.84
2018-11-04T17:07:13.365Z,102271.81
2018-11-04T17:09:41.114Z,102264.41
2018-11-04T17:12:10.022Z,102260.34
2018-11-04T17:14:38.352Z,102261.80
2018-11-04T17:17:06.659Z,102261.95
2018-11-04T17:19:34.416Z,102270.59
2018-11-04T17:22:03.329Z,102263.39
2018-11-04T17:24:31.078Z,102260.06
2018-11-04T17:26:59.398Z,102257.27
2018-11-04T17:29:28.308Z,102252.05
2018-11-04T17:31:56.631Z,102255.75
2018-11-04T17:34:25.186Z,102247.20
2018-11-04T17:36:52.704Z,102245.64
2018-11-04T17:39:21.605Z,102244.13
2018-11-04T17:41:49.357Z,102251.38
2018-11-04T17:44:18.319Z,102246.48
2018-11-04T17:46:46.882Z,102240.30
2018-11-04T17:49:15.797Z,102246.72
2018-11-04T17:51:44.123Z,102248.25
2018-11-04T17:54:11.977Z,102240.72
2018-11-04T17:56:40.248Z,102244.58
2018-11-04T17:59:09.159Z,102249.12
2018-11-04T18:01:36.902Z,102245.12
2018-11-04T18:04:05.236Z,102242.16
2018-11-04T18:06:34.163Z,102226.81
2018-11-04T18:09:02.496Z,102222.84
2018-11-04T18:11:30.798Z,102219.25
2018-11-04T18:13:59.219Z,102217.95
2018-11-04T18:16:27.687Z,102211.56
2018-11-04T18:18:55.206Z,102216.03
2018-11-04T18:21:24.113Z,102218.33
2018-11-04T18:23:51.917Z,102215.92
2018-11-04T18:26:20.921Z,102218.36
2018-11-04T18:28:49.489Z,102213.98
2018-11-04T18:31:17.841Z,102222.48
2018-11-04T18:33:46.161Z,102223.27
2018-11-04T18:36:14.502Z,102229.44
2018-11-04T18:38:42.841Z,102233.52
2018-11-04T18:41:11.174Z,102229.23
2018-11-04T18:43:39.516Z,102229.91
2018-11-04T18:46:07.259Z,102229.14
2018-11-04T18:48:36.167Z,102231.01
2018-11-04T18:51:03.922Z,102227.72
2018-11-04T18:53:32.242Z,102230.01
2018-11-04T18:56:01.159Z,102228.89
2018-11-04T18:58:29.511Z,102225.98
2018-11-04T19:00:57.251Z,102223.23
2018-11-04T19:03:26.175Z,102225.80
2018-11-04T19:05:54.514Z,102233.86
2018-11-04T19:08:22.272Z,102235.35
2018-11-04T19:10:51.181Z,102243.95
2018-11-04T19:13:19.538Z,102243.64
2018-11-04T19:15:47.316Z,102242.74
2018-11-04T19:18:16.240Z,102240.03
2018-11-04T19:20:44.571Z,102246.83
2018-11-04T19:23:12.899Z,102245.77
2018-11-04T19:25:40.651Z,102246.45
2018-11-04T19:28:09.588Z,102237.06
2018-11-04T19:30:37.919Z,102235.22
2018-11-04T19:33:07.106Z,102232.64
2018-11-04T19:35:34.893Z,102229.34
2018-11-04T19:38:03.221Z,102226.75
2018-11-04T19:40:32.256Z,102219.44
2018-11-04T19:43:00.597Z,102224.36
2018-11-04T19:45:28.961Z,102226.60
2018-11-04T19:47:56.735Z,102228.34
2018-11-04T19:50:25.036Z,102220.83
2018-11-04T19:52:53.942Z,102215.49
2018-11-04T19:55:21.686Z,102210.61
2018-11-04T19:57:50.658Z,102210.89
2018-11-04T20:00:18.445Z,102206.84
2018-11-04T20:02:47.442Z,102210.89
2018-11-04T20:05:16.138Z,102207.56
2018-11-04T20:07:44.452Z,102208.14
2018-11-04T20:10:12.817Z,102209.58
2018-11-04T20:12:40.692Z,102210.60
2018-11-04T20:15:09.618Z,102208.64
2018-11-04T20:17:38.026Z,102203.41
2018-11-04T20:20:07.453Z,102200.59
2018-11-04T20:22:37.020Z,102197.72
2018-11-04T20:25:13.978Z,102194.91
2018-11-04T20:27:42.383Z,102197.90
2018-11-04T20:30:10.792Z,102198.29
2018-11-04T20:32:40.820Z,102195.44
2018-11-04T20:35:10.680Z,102194.84
2018-11-04T20:37:39.667Z,102191.59
2018-11-04T20:40:13.343Z,102191.77
2018-11-04T20:42:41.721Z,102186.16
2018-11-04T20:45:11.764Z,102187.76
2018-11-04T20:47:39.466Z,102188.81
2018-11-04T20:50:08.439Z,102184.20
2018-11-04T20:52:37.194Z,102180.87
2018-11-04T20:55:05.552Z,102178.54
2018-11-04T20:57:33.893Z,102175.50
2018-11-04T21:00:02.316Z,102177.58
2018-11-04T21:02:30.475Z,102176.54
2018-11-04T21:04:59.094Z,102172.75
2018-11-04T21:07:27.459Z,102170.09
2018-11-04T21:09:56.012Z,102171.48
2018-11-04T21:12:24.409Z,102166.54
2018-11-04T21:14:52.857Z,102167.23
2018-11-04T21:17:22.091Z,102171.11
2018-11-04T21:19:50.210Z,102172.48
2018-11-04T21:22:18.535Z,102167.23
2018-11-04T21:24:46.602Z,102171.23
2018-11-04T21:27:15.571Z,102167.20
2018-11-04T21:29:43.994Z,102163.95
2018-11-04T21:32:11.998Z,102156.45
2018-11-04T21:34:41.339Z,102152.97
2018-11-04T21:37:10.395Z,102153.97
2018-11-04T21:39:39.182Z,102152.06
2018-11-04T21:42:07.020Z,102146.01
2018-11-04T21:44:36.035Z,102143.19
2018-11-04T21:47:04.373Z,102140.03
2018-11-04T21:49:32.837Z,102135.92
2018-11-04T21:52:02.282Z,102135.14
2018-11-04T21:54:30.860Z,102135.73
2018-11-04T21:56:59.696Z,102139.23
2018-11-04T21:59:29.618Z,102137.10
2018-11-04T22:01:57.933Z,102134.42
2018-11-04T22:04:26.548Z,102131.22
2018-11-04T22:06:54.825Z,102134.13
2018-11-04T22:09:23.455Z,102130.27
2018-11-04T22:11:51.812Z,102126.00
2018-11-04T22:14:20.202Z,102123.77
2018-11-04T22:16:48.527Z,102119.77
2018-11-04T22:19:16.873Z,102122.44
2018-11-04T22:21:44.616Z,102119.55
2018-11-04T22:24:13.552Z,102126.92
2018-11-04T22:26:41.935Z,102127.50
2018-11-04T22:29:10.295Z,102130.19
2018-11-04T22:31:38.784Z,102119.83
2018-11-04T22:34:07.083Z,102117.95
2018-11-04T22:36:34.854Z,102116.23
2018-11-04T22:39:03.155Z,102116.39
2018-11-04T22:41:32.218Z,102108.44
2018-11-04T22:44:00.540Z,102106.20
2018-11-04T22:46:28.881Z,102100.52
2018-11-04T22:48:57.207Z,102097.08
2018-11-04T22:51:24.944Z,102094.78
2018-11-04T22:53:53.366Z,102088.92
2018-11-04T22:56:21.844Z,102090.22
2018-11-04T22:58:50.736Z,102091.02
2018-11-04T23:01:19.283Z,102087.19
2018-11-04T23:03:47.788Z,102087.34
2018-11-04T23:06:15.537Z,102087.50
2018-11-04T23:08:44.560Z,102084.75
2018-11-04T23:11:12.886Z,102085.11
2018-11-04T23:13:41.278Z,102080.32
2018-11-04T23:16:09.715Z,102080.88
2018-11-04T23:18:38.245Z,102077.89
2018-11-04T23:21:06.555Z,102080.30
2018-11-04T23:23:34.319Z,102071.61
2018-11-04T23:26:03.291Z,102075.64
2018-11-04T23:28:31.021Z,102070.48
2018-11-04T23:30:59.435Z,102070.08
2018-11-04T23:33:28.519Z,102053.70
2018-11-04T23:35:56.834Z,102054.34
2018-11-04T23:38:25.267Z,102051.83
2018-11-04T23:40:53.595Z,102046.48
2018-11-04T23:43:21.343Z,102042.46
2018-11-04T23:45:50.356Z,102042.16
2018-11-04T23:48:18.878Z,102034.88
2018-11-04T23:50:47.303Z,102033.91
2018-11-04T23:53:15.632Z,102034.53
2018-11-04T23:55:44.561Z,102036.33
2018-11-04T23:58:12.336Z,102030.37
